This is the latest recevied weather packets stored in our database for station/object LKLN. If no packets are shown the sender has not sent any weather packets the latest 1 day(s).
| Time | Temp. | Humidity | Pressure | Rain* | Wind** | Luminosity | Snow |
|---|---|---|---|---|---|---|---|
| 1778079485 | 18.89° C | 55% | 1005 hPa | - | - | - | - |
| 1778077684 | 20° C | 52% | 1005 hPa | - | - | - | - |
| 1778074085 | 21.11° C | 46% | 1005 hPa | - | - | - | - |
| 1778072285 | 20° C | 49% | 1005 hPa | - | - | - | - |
| 1778066884 | 18.89° C | 55% | 1006 hPa | - | - | - | - |
| 1778063285 | 17.78° C | 59% | 1007 hPa | - | - | - | - |
| 1778061485 | 17.22° C | 63% | 1007 hPa | - | - | - | - |
| 1778056084 | 16.11° C | 67% | 1007 hPa | - | - | - | - |
| 1778052484 | 15° C | 77% | 1007 hPa | - | - | - | - |
| 1778048884 | 12.78° C | 87% | 1007 hPa | - | - | - | - |
| 1778047085 | 12.78° C | 93% | 1007 hPa | - | - | - | - |
| 1778039885 | 10° C | 100% | 1007 hPa | - | - | - | - |
| 1778036284 | 11.11° C | 100% | 1007 hPa | - | - | - | - |
| 1778034485 | 11.11° C | 100% | 1007 hPa | - | - | - | - |
| 1778032684 | 10° C | 100% | 1007 hPa | - | - | - | - |
| 1778030884 | 11.11° C | 100% | 1007 hPa | - | - | - | - |
| 1778029086 | 11.11° C | 100% | 1007 hPa | - | - | - | - |
| 1778023684 | 12.78° C | 100% | 1007 hPa | - | - | - | - |
| 1778018285 | 12.78° C | 100% | 1007 hPa | - | - | - | - |
| 1778012884 | 13.89° C | 100% | 1007 hPa | - | - | - | - |
| 1778007018 | 15° C | 93% | 1005 hPa | - | - | - | - |
| 1778002085 | 17.22° C | 82% | 1004 hPa | - | - | - | - |
| 1778000717 | 18.89° C | 68% | 1004 hPa | - | - | - | - |
* Rain since midnight (hover to see other rain measurements)
** Current wind speed in m/s (hover to see current wind gust speed)